createdAt,value
2023-10-18T00:00:30.053Z,2.60
2023-10-18T00:02:59.314Z,2.60
2023-10-18T00:05:28.297Z,2.60
2023-10-18T00:07:58.014Z,2.50
2023-10-18T00:10:28.460Z,2.50
2023-10-18T00:12:57.548Z,2.50
2023-10-18T00:15:27.361Z,2.40
2023-10-18T00:17:56.768Z,2.50
2023-10-18T00:20:26.975Z,2.50
2023-10-18T00:25:25.440Z,2.40
2023-10-18T00:27:53.916Z,2.40
2023-10-18T00:30:22.630Z,2.50
2023-10-18T00:32:52.327Z,2.60
2023-10-18T00:35:22.244Z,2.60
2023-10-18T00:37:56.625Z,2.50
2023-10-18T00:40:41.849Z,2.60
2023-10-18T00:43:17.583Z,2.50
2023-10-18T00:45:49.063Z,2.60
2023-10-18T00:48:24.392Z,2.60
2023-10-18T00:50:54.374Z,2.70
2023-10-18T00:53:25.074Z,2.70
2023-10-18T00:55:58.768Z,2.80
2023-10-18T00:58:29.741Z,3.00
2023-10-18T01:00:59.483Z,3.00
2023-10-18T01:03:33.774Z,3.10
2023-10-18T01:06:06.182Z,3.10
2023-10-18T01:08:38.604Z,3.10
2023-10-18T01:11:11.468Z,3.20
2023-10-18T01:13:43.131Z,3.20
2023-10-18T01:16:15.606Z,3.20
2023-10-18T01:18:49.094Z,3.20
2023-10-18T01:21:20.539Z,3.30
2023-10-18T01:23:52.380Z,3.30
2023-10-18T01:26:25.532Z,3.40
2023-10-18T01:28:56.855Z,3.40
2023-10-18T01:31:26.540Z,3.40
2023-10-18T01:33:55.646Z,3.50
2023-10-18T01:36:32.020Z,3.60
2023-10-18T01:39:01.193Z,3.60
2023-10-18T01:41:30.945Z,3.90
2023-10-18T01:44:07.485Z,3.70
2023-10-18T01:46:36.599Z,3.70
2023-10-18T01:49:06.221Z,4.40
2023-10-18T01:51:35.920Z,3.70
2023-10-18T01:54:13.827Z,3.70
2023-10-18T01:56:47.825Z,3.70
2023-10-18T01:59:18.956Z,3.70
2023-10-18T02:01:53.122Z,3.60
2023-10-18T02:04:40.200Z,3.50
2023-10-18T02:09:50.092Z,3.40
2023-10-18T02:12:21.401Z,3.40
2023-10-18T02:14:51.871Z,3.40
2023-10-18T02:17:21.577Z,3.50
2023-10-18T02:19:50.323Z,3.50
2023-10-18T02:22:20.158Z,3.40
2023-10-18T02:27:24.560Z,3.40
2023-10-18T02:32:34.088Z,3.50
2023-10-18T02:35:05.568Z,3.60
2023-10-18T02:37:33.972Z,3.60
2023-10-18T02:40:10.078Z,3.70
2023-10-18T02:42:40.777Z,3.70
2023-10-18T02:45:15.111Z,4.40
2023-10-18T02:47:45.292Z,3.70
2023-10-18T02:50:16.767Z,2.50
2023-10-18T02:52:47.583Z,3.70
2023-10-18T02:55:19.934Z,3.60
2023-10-18T02:57:50.395Z,3.60
2023-10-18T03:00:20.937Z,3.70
2023-10-18T03:02:51.332Z,3.60
2023-10-18T03:05:21.672Z,3.70
2023-10-18T03:07:50.378Z,3.60
2023-10-18T03:10:28.577Z,3.60
2023-10-18T03:13:04.491Z,3.50
2023-10-18T03:15:32.986Z,3.60
2023-10-18T03:18:05.467Z,3.60
2023-10-18T03:20:38.645Z,3.50
2023-10-18T03:23:08.480Z,3.40
2023-10-18T03:25:37.556Z,3.40
2023-10-18T03:28:14.369Z,3.40
2023-10-18T03:30:46.207Z,3.40
2023-10-18T03:33:16.028Z,3.40
2023-10-18T03:35:50.844Z,3.50
2023-10-18T03:38:19.916Z,3.50
2023-10-18T03:40:51.191Z,3.50
2023-10-18T03:43:27.792Z,3.60
2023-10-18T03:46:14.714Z,4.40
2023-10-18T03:48:46.512Z,4.30
2023-10-18T03:51:24.691Z,3.50
2023-10-18T03:53:56.353Z,3.50
2023-10-18T03:56:25.901Z,3.50
2023-10-18T03:59:02.111Z,3.40
2023-10-18T04:01:41.279Z,3.40
2023-10-18T04:04:19.463Z,3.40
2023-10-18T04:06:51.241Z,3.40
2023-10-18T04:09:24.974Z,3.40
2023-10-18T04:11:54.363Z,3.40
2023-10-18T04:14:24.202Z,3.40
2023-10-18T04:16:58.339Z,3.40
2023-10-18T04:19:27.211Z,3.40
2023-10-18T04:24:26.271Z,3.30
2023-10-18T04:26:57.844Z,3.30
2023-10-18T04:29:34.538Z,3.30
2023-10-18T04:32:07.122Z,3.30
2023-10-18T04:34:35.567Z,3.30
2023-10-18T04:37:06.504Z,3.30
2023-10-18T04:39:35.559Z,4.40
2023-10-18T04:42:07.980Z,3.40
2023-10-18T04:44:39.145Z,3.30
2023-10-18T04:47:15.472Z,3.30
2023-10-18T04:49:51.445Z,3.30
2023-10-18T04:55:06.261Z,3.30
2023-10-18T05:00:36.312Z,3.30
2023-10-18T05:03:08.999Z,3.30
2023-10-18T05:05:45.966Z,3.30
2023-10-18T05:08:16.722Z,3.30
2023-10-18T05:16:06.237Z,3.80
2023-10-18T05:18:34.666Z,3.30
2023-10-18T05:21:09.019Z,3.30
2023-10-18T05:23:38.646Z,3.30
2023-10-18T05:26:18.795Z,3.30
2023-10-18T05:28:50.891Z,3.30
2023-10-18T05:31:39.193Z,3.40
2023-10-18T05:36:59.229Z,3.30
2023-10-18T05:39:49.961Z,3.30
2023-10-18T05:44:50.772Z,3.20
2023-10-18T05:47:20.636Z,3.30
2023-10-18T05:49:51.763Z,3.20
2023-10-18T05:52:37.941Z,3.40
2023-10-18T05:55:13.565Z,3.40
2023-10-18T05:57:43.352Z,3.40
2023-10-18T06:02:49.336Z,3.40
2023-10-18T06:05:17.718Z,3.40
2023-10-18T06:10:17.538Z,3.50
2023-10-18T06:12:49.650Z,3.60
2023-10-18T06:18:02.463Z,3.60
2023-10-18T06:20:31.378Z,3.60
2023-10-18T06:23:11.058Z,3.50
2023-10-18T06:25:45.906Z,4.40
2023-10-18T06:28:22.209Z,3.60
2023-10-18T06:30:53.824Z,3.60
2023-10-18T06:33:24.466Z,3.70
2023-10-18T06:35:56.022Z,3.70
2023-10-18T06:38:26.916Z,3.70
2023-10-18T06:43:33.347Z,3.80
2023-10-18T06:46:02.238Z,3.90
2023-10-18T06:48:32.780Z,3.90
2023-10-18T06:51:01.323Z,4.10
2023-10-18T06:53:30.508Z,4.20
2023-10-18T06:58:44.668Z,4.70
2023-10-18T07:01:21.400Z,5.00
2023-10-18T07:03:52.013Z,5.30
2023-10-18T07:06:25.287Z,5.60
2023-10-18T07:08:54.391Z,6.00
2023-10-18T07:11:34.792Z,6.40
2023-10-18T07:14:06.684Z,6.70
2023-10-18T07:16:40.365Z,7.00
2023-10-18T07:19:26.746Z,7.10
2023-10-18T07:24:26.284Z,7.50
2023-10-18T07:26:55.416Z,7.70
2023-10-18T07:29:24.309Z,7.80
2023-10-18T07:31:55.114Z,7.80
2023-10-18T07:34:30.624Z,7.90
2023-10-18T07:36:59.780Z,7.90
2023-10-18T07:39:28.279Z,8.00
2023-10-18T07:41:56.784Z,8.20
2023-10-18T07:44:25.558Z,8.10
2023-10-18T07:46:53.934Z,8.20
2023-10-18T07:49:22.565Z,8.30
2023-10-18T07:51:57.319Z,8.40
2023-10-18T07:54:25.832Z,8.40
2023-10-18T07:56:55.839Z,8.20
2023-10-18T07:59:32.244Z,8.00
2023-10-18T08:02:15.292Z,7.90
2023-10-18T08:04:45.129Z,7.80
2023-10-18T08:07:21.072Z,7.90
2023-10-18T08:09:52.912Z,7.90
2023-10-18T08:12:29.604Z,7.90
2023-10-18T08:14:58.993Z,7.90
2023-10-18T08:17:44.566Z,7.90
2023-10-18T08:20:34.511Z,7.90
2023-10-18T08:23:19.678Z,8.10
2023-10-18T08:25:52.756Z,8.30
2023-10-18T08:28:21.576Z,8.60
2023-10-18T08:31:03.954Z,8.80
2023-10-18T08:33:32.641Z,8.90
2023-10-18T08:36:07.835Z,9.30
2023-10-18T08:38:37.653Z,9.40
2023-10-18T08:41:15.238Z,9.30
2023-10-18T08:44:01.059Z,9.30
2023-10-18T08:46:29.568Z,9.30
2023-10-18T08:49:00.072Z,9.30
2023-10-18T08:51:31.180Z,9.30
2023-10-18T08:54:10.826Z,9.40
2023-10-18T08:56:42.641Z,9.30
2023-10-18T08:59:12.571Z,9.30
2023-10-18T09:02:01.805Z,9.60
2023-10-18T09:04:30.010Z,10.00
2023-10-18T09:07:02.204Z,10.30
2023-10-18T09:09:36.823Z,10.20
2023-10-18T09:12:15.959Z,10.40
2023-10-18T09:14:51.874Z,10.30
2023-10-18T09:17:24.218Z,10.00
2023-10-18T09:19:57.051Z,10.10
2023-10-18T09:22:25.545Z,10.30
2023-10-18T09:24:56.806Z,10.40
2023-10-18T09:27:28.438Z,10.50
2023-10-18T09:29:56.861Z,10.60
2023-10-18T09:32:34.595Z,11.00
2023-10-18T09:35:09.456Z,11.50
2023-10-18T09:37:40.973Z,12.20
2023-10-18T09:40:14.154Z,12.80
2023-10-18T09:42:45.310Z,13.60
2023-10-18T09:45:17.777Z,14.40
2023-10-18T09:47:47.006Z,14.20
2023-10-18T09:50:25.229Z,14.20
2023-10-18T09:52:59.027Z,14.40
2023-10-18T09:55:30.872Z,14.40
2023-10-18T09:58:04.126Z,14.10
2023-10-18T10:00:41.877Z,14.10
2023-10-18T10:03:12.188Z,13.90
2023-10-18T10:05:45.071Z,12.90
2023-10-18T10:08:16.491Z,13.80
2023-10-18T10:10:46.689Z,14.10
2023-10-18T10:13:29.199Z,14.50
2023-10-18T10:16:05.493Z,15.00
2023-10-18T10:18:39.971Z,15.60
2023-10-18T10:21:14.502Z,16.00
2023-10-18T10:23:44.308Z,15.90
2023-10-18T10:26:30.959Z,15.70
2023-10-18T10:29:22.898Z,15.60
2023-10-18T10:31:59.369Z,15.50
2023-10-18T10:34:33.983Z,15.20
2023-10-18T10:37:10.433Z,15.10
2023-10-18T10:39:46.660Z,14.60
2023-10-18T10:42:44.995Z,14.20
2023-10-18T10:45:33.603Z,13.70
2023-10-18T10:48:33.673Z,13.50
2023-10-18T10:51:10.374Z,13.40
2023-10-18T10:53:46.267Z,13.50
2023-10-18T10:56:22.844Z,13.40
2023-10-18T10:59:04.303Z,13.30
2023-10-18T11:02:15.294Z,13.10
2023-10-18T11:05:00.082Z,12.90
2023-10-18T11:07:29.426Z,13.20
2023-10-18T11:10:16.074Z,13.30
2023-10-18T11:12:46.995Z,13.80
2023-10-18T11:15:19.822Z,14.30
2023-10-18T11:17:50.334Z,14.20
2023-10-18T11:20:22.929Z,14.10
2023-10-18T11:22:52.551Z,13.80
2023-10-18T11:25:31.849Z,13.50
2023-10-18T11:28:22.411Z,13.10
2023-10-18T11:30:55.061Z,12.80
2023-10-18T11:33:48.352Z,12.60
2023-10-18T11:36:20.561Z,12.50
2023-10-18T11:39:03.237Z,12.30
2023-10-18T11:41:35.972Z,12.20
2023-10-18T11:44:07.644Z,12.20
2023-10-18T11:46:50.976Z,12.10
2023-10-18T11:49:21.521Z,12.00
2023-10-18T11:51:55.247Z,12.00
2023-10-18T11:54:34.722Z,12.20
2023-10-18T11:57:07.297Z,12.60
2023-10-18T11:59:55.850Z,13.10
2023-10-18T12:02:29.628Z,13.60
2023-10-18T12:04:58.788Z,13.90
2023-10-18T12:07:27.370Z,14.10
2023-10-18T12:09:56.462Z,14.20
2023-10-18T12:14:55.286Z,15.80
2023-10-18T12:17:25.068Z,15.60
2023-10-18T12:19:53.885Z,15.60
2023-10-18T12:22:25.130Z,15.40
2023-10-18T12:24:53.783Z,15.10
2023-10-18T12:27:35.061Z,15.10
2023-10-18T12:30:31.470Z,14.90
2023-10-18T12:33:06.852Z,14.60
2023-10-18T12:35:37.874Z,14.60
2023-10-18T12:38:14.087Z,14.60
2023-10-18T12:40:52.666Z,15.70
2023-10-18T12:43:22.516Z,16.60
2023-10-18T12:45:52.540Z,17.10
2023-10-18T12:48:25.758Z,17.00
2023-10-18T12:50:56.154Z,16.50
2023-10-18T12:53:42.995Z,16.20
2023-10-18T12:56:32.359Z,15.80
2023-10-18T12:59:24.088Z,15.50
2023-10-18T13:01:53.008Z,15.20
2023-10-18T13:04:23.473Z,14.60
2023-10-18T13:06:52.422Z,14.40
2023-10-18T13:09:20.383Z,14.10
2023-10-18T13:12:09.280Z,14.00
2023-10-18T13:14:37.067Z,14.50
2023-10-18T13:17:10.640Z,14.60
2023-10-18T13:19:43.326Z,14.60
2023-10-18T13:22:19.183Z,14.80
2023-10-18T13:24:49.210Z,14.70
2023-10-18T13:27:19.822Z,14.90
2023-10-18T13:32:31.228Z,15.80
2023-10-18T13:35:06.252Z,16.30
2023-10-18T13:37:35.668Z,16.10
2023-10-18T13:40:10.068Z,15.40
2023-10-18T13:42:41.747Z,15.20
2023-10-18T13:45:11.978Z,15.30
2023-10-18T13:47:41.449Z,15.50
2023-10-18T13:50:13.395Z,15.50
2023-10-18T13:52:43.616Z,16.00
2023-10-18T13:55:15.310Z,16.10
2023-10-18T13:57:43.721Z,16.40
2023-10-18T14:00:15.720Z,15.90
2023-10-18T14:02:44.541Z,16.20
2023-10-18T14:05:14.979Z,15.60
2023-10-18T14:07:45.820Z,15.20
2023-10-18T14:10:21.499Z,14.80
2023-10-18T14:12:50.982Z,15.00
2023-10-18T14:15:21.130Z,15.20
2023-10-18T14:17:53.652Z,15.20
2023-10-18T14:20:27.349Z,15.40
2023-10-18T14:22:56.891Z,15.00
2023-10-18T14:25:26.837Z,14.90
2023-10-18T14:27:57.453Z,14.70
2023-10-18T14:30:28.555Z,14.40
2023-10-18T14:33:00.455Z,14.20
2023-10-18T14:35:30.866Z,14.30
2023-10-18T14:38:01.853Z,14.20
2023-10-18T14:40:38.058Z,14.30
2023-10-18T14:43:08.644Z,14.40
2023-10-18T14:45:37.425Z,14.20
2023-10-18T14:48:06.750Z,14.20
2023-10-18T14:50:37.951Z,14.20
2023-10-18T14:53:08.501Z,14.00
2023-10-18T14:55:41.619Z,14.10
2023-10-18T14:58:10.081Z,14.50
2023-10-18T15:00:40.522Z,14.80
2023-10-18T15:03:12.335Z,15.30
2023-10-18T15:05:42.249Z,15.70
2023-10-18T15:08:14.141Z,16.20
2023-10-18T15:10:47.797Z,16.20
2023-10-18T15:13:17.482Z,15.40
2023-10-18T15:15:46.715Z,14.60
2023-10-18T15:20:45.907Z,13.30
2023-10-18T15:23:14.695Z,12.80
2023-10-18T15:25:43.580Z,12.50
2023-10-18T15:28:11.956Z,12.20
2023-10-18T15:30:40.472Z,12.00
2023-10-18T15:33:10.554Z,11.80
2023-10-18T15:35:39.524Z,11.70
2023-10-18T15:38:09.298Z,11.50
2023-10-18T15:40:40.762Z,11.40
2023-10-18T15:43:10.971Z,11.30
2023-10-18T15:45:39.328Z,11.20
2023-10-18T15:48:12.924Z,11.10
2023-10-18T15:50:41.852Z,11.10
2023-10-18T15:53:11.680Z,10.90
2023-10-18T15:55:40.333Z,10.80
2023-10-18T15:58:11.354Z,10.80
2023-10-18T16:00:40.331Z,10.80
2023-10-18T16:03:10.272Z,10.70
2023-10-18T16:05:39.004Z,10.60
2023-10-18T16:08:09.315Z,10.60
2023-10-18T16:10:39.977Z,10.50
2023-10-18T16:13:10.513Z,10.50
2023-10-18T16:15:40.748Z,10.50
2023-10-18T16:18:09.397Z,10.40
2023-10-18T16:23:08.882Z,10.40
2023-10-18T16:25:43.055Z,10.40
2023-10-18T16:28:12.175Z,10.30
2023-10-18T16:30:41.723Z,10.30
2023-10-18T16:33:13.051Z,10.30
2023-10-18T16:35:42.626Z,10.30
2023-10-18T16:38:11.781Z,10.40
2023-10-18T16:40:41.738Z,10.50
2023-10-18T16:43:10.517Z,10.50
2023-10-18T16:45:41.571Z,12.40
2023-10-18T16:48:11.301Z,10.50
2023-10-18T16:50:43.056Z,10.40
2023-10-18T16:53:11.480Z,10.40
2023-10-18T16:55:42.052Z,10.40
2023-10-18T16:58:11.650Z,10.40
2023-10-18T17:00:40.036Z,10.30
2023-10-18T17:03:08.571Z,10.20
2023-10-18T17:05:37.191Z,10.10
2023-10-18T17:08:06.952Z,10.00
2023-10-18T17:10:37.257Z,9.90
2023-10-18T17:13:07.335Z,9.80
2023-10-18T17:15:37.632Z,9.60
2023-10-18T17:18:08.148Z,9.60
2023-10-18T17:20:38.906Z,9.50
2023-10-18T17:23:07.385Z,9.50
2023-10-18T17:25:37.204Z,9.50
2023-10-18T17:28:08.941Z,9.50
2023-10-18T17:30:38.470Z,9.60
2023-10-18T17:35:39.057Z,9.70
2023-10-18T17:38:11.026Z,9.80
2023-10-18T17:40:40.365Z,9.90
2023-10-18T17:43:11.360Z,9.80
2023-10-18T17:45:40.519Z,9.90
2023-10-18T17:50:41.148Z,9.90
2023-10-18T17:53:13.711Z,9.90
2023-10-18T17:55:45.503Z,10.00
2023-10-18T17:58:18.652Z,10.00
2023-10-18T18:00:53.973Z,10.00
2023-10-18T18:03:24.554Z,10.00
2023-10-18T18:05:53.060Z,10.00
2023-10-18T18:08:26.904Z,10.00
2023-10-18T18:10:58.149Z,10.00
2023-10-18T18:13:27.862Z,10.00
2023-10-18T18:15:58.688Z,10.00
2023-10-18T18:18:27.095Z,9.90
2023-10-18T18:20:56.890Z,9.80
2023-10-18T18:23:26.629Z,9.80
2023-10-18T18:25:57.620Z,9.70
2023-10-18T18:28:28.070Z,9.70
2023-10-18T18:33:25.223Z,9.70
2023-10-18T18:35:53.547Z,9.70
2023-10-18T18:38:22.003Z,9.70
2023-10-18T18:43:21.640Z,9.70
2023-10-18T18:45:51.535Z,9.70
2023-10-18T18:48:19.907Z,9.70
2023-10-18T18:50:48.766Z,9.70
2023-10-18T18:53:18.240Z,9.70
2023-10-18T18:55:47.429Z,9.60
2023-10-18T18:58:16.174Z,9.70
2023-10-18T19:00:44.585Z,9.60
2023-10-18T19:03:14.803Z,9.60
2023-10-18T19:05:43.445Z,9.60
2023-10-18T19:08:11.871Z,9.50
2023-10-18T19:13:09.113Z,9.50
2023-10-18T19:15:37.544Z,9.50
2023-10-18T19:18:08.071Z,9.50
2023-10-18T19:20:38.120Z,9.50
2023-10-18T19:23:07.869Z,9.50
2023-10-18T19:28:08.679Z,9.60
2023-10-18T19:30:37.387Z,9.60
2023-10-18T19:33:06.496Z,10.00
2023-10-18T19:35:37.967Z,9.60
2023-10-18T19:38:09.454Z,9.60
2023-10-18T19:40:39.055Z,9.60
2023-10-18T19:43:07.430Z,9.60
2023-10-18T19:45:36.355Z,9.60
2023-10-18T19:48:05.424Z,9.60
2023-10-18T19:50:34.168Z,9.70
2023-10-18T19:55:34.148Z,9.60
2023-10-18T19:58:03.882Z,9.70
2023-10-18T20:00:32.350Z,9.70
2023-10-18T20:03:00.999Z,9.60
2023-10-18T20:05:29.667Z,9.90
2023-10-18T20:07:58.421Z,9.70
2023-10-18T20:10:29.249Z,9.60
2023-10-18T20:12:59.204Z,9.60
2023-10-18T20:15:27.498Z,9.50
2023-10-18T20:17:57.213Z,9.40
2023-10-18T20:20:26.299Z,9.40
2023-10-18T20:22:57.882Z,9.30
2023-10-18T20:25:26.603Z,9.20
2023-10-18T20:27:57.342Z,9.20
2023-10-18T20:30:27.583Z,9.10
2023-10-18T20:32:56.445Z,9.00
2023-10-18T20:35:26.785Z,7.40
2023-10-18T20:37:55.180Z,8.90
2023-10-18T20:40:23.745Z,8.80
2023-10-18T20:42:53.558Z,8.80
2023-10-18T20:45:22.101Z,8.80
2023-10-18T20:47:51.945Z,8.80
2023-10-18T20:50:23.963Z,8.80
2023-10-18T20:52:54.827Z,8.80
2023-10-18T20:55:24.970Z,8.80
2023-10-18T21:03:00.973Z,8.80
2023-10-18T21:05:30.381Z,8.80
2023-10-18T21:07:59.824Z,8.80
2023-10-18T21:10:31.752Z,8.80
2023-10-18T21:13:00.416Z,8.90
2023-10-18T21:15:31.352Z,8.80
2023-10-18T21:18:01.100Z,8.80
2023-10-18T21:23:01.028Z,8.80
2023-10-18T21:25:29.813Z,8.90
2023-10-18T21:27:58.170Z,8.80
2023-10-18T21:30:27.458Z,8.80
2023-10-18T21:35:27.375Z,8.70
2023-10-18T21:37:55.843Z,8.70
2023-10-18T21:40:25.814Z,8.60
2023-10-18T21:45:23.519Z,8.50
2023-10-18T21:47:53.203Z,8.50
2023-10-18T21:50:21.534Z,8.50
2023-10-18T21:52:51.270Z,8.40
2023-10-18T21:55:19.715Z,8.20
2023-10-18T21:57:48.084Z,8.40
2023-10-18T22:00:24.051Z,7.60
2023-10-18T22:02:52.511Z,8.90
2023-10-18T22:05:27.902Z,8.30
2023-10-18T22:08:00.361Z,8.20
2023-10-18T22:10:43.006Z,8.30
2023-10-18T22:13:11.676Z,8.30
2023-10-18T22:15:48.127Z,8.20
2023-10-18T22:18:18.325Z,8.20
2023-10-18T22:20:48.966Z,8.20
2023-10-18T22:23:18.691Z,8.20
2023-10-18T22:26:01.981Z,8.30
2023-10-18T22:28:36.726Z,8.20
2023-10-18T22:31:07.874Z,8.10
2023-10-18T22:33:37.316Z,8.30
2023-10-18T22:36:09.120Z,8.30
2023-10-18T22:38:41.406Z,8.30
2023-10-18T22:41:14.290Z,8.30
2023-10-18T22:43:42.949Z,8.40
2023-10-18T22:46:33.944Z,8.40
2023-10-18T22:51:46.109Z,8.50
2023-10-18T22:54:16.762Z,8.60
2023-10-18T22:56:57.590Z,8.60
2023-10-18T22:59:27.792Z,8.60
2023-10-18T23:01:56.366Z,8.60
2023-10-18T23:04:25.868Z,8.00
2023-10-18T23:06:58.628Z,8.70
2023-10-18T23:09:28.745Z,8.70
2023-10-18T23:11:59.139Z,8.70
2023-10-18T23:14:29.080Z,8.70
2023-10-18T23:17:13.184Z,8.70
2023-10-18T23:19:46.523Z,8.70
2023-10-18T23:22:21.080Z,8.70
2023-10-18T23:24:54.601Z,8.80
2023-10-18T23:27:40.565Z,8.80
2023-10-18T23:30:19.883Z,8.70
2023-10-18T23:32:59.498Z,8.70
2023-10-18T23:38:11.050Z,8.70
2023-10-18T23:40:57.559Z,8.70
2023-10-18T23:43:47.627Z,8.70
2023-10-18T23:49:30.072Z,8.70
2023-10-18T23:52:18.698Z,8.70
2023-10-18T23:54:50.331Z,8.80
2023-10-18T23:57:24.276Z,8.70
2023-10-18T23:59:53.040Z,8.70
